Time;durP1;ratioP1;P1;durP2;ratioP2;P2;SDS_P1;SDS_P2;PMS_P1;PMS_P2;Temp;Humidity;BMP_temperature;BMP_pressure;BME280_temperature;BME280_humidity;BME280_pressure;Samples;Min_cycle;Max_cycle;Signal;HPM_P1;HPM_P2
2022/06/16 00:00:18;;;;;;;7.50;3.00;;;19.30;99.90;;;;;;5076741;28;20442;-78
2022/06/16 00:02:47;;;;;;;6.33;3.50;;;19.20;99.90;;;;;;5076583;28;20479;-79
2022/06/16 00:05:16;;;;;;;4.90;3.00;;;19.20;99.90;;;;;;5077434;28;20446;-80
2022/06/16 00:07:43;;;;;;;6.73;3.13;;;19.20;99.90;;;;;;5077035;28;20529;-79
2022/06/16 00:10:12;;;;;;;5.77;3.57;;;19.10;99.90;;;;;;5076177;28;20958;-80
2022/06/16 00:12:40;;;;;;;5.97;2.90;;;19.10;99.90;;;;;;5076462;28;20443;-81
2022/06/16 00:15:11;;;;;;;7.07;2.73;;;19.00;99.90;;;;;;5076854;28;20484;-79
2022/06/16 00:17:37;;;;;;;7.73;2.77;;;19.00;99.90;;;;;;5076272;28;20478;-78
2022/06/16 00:20:07;;;;;;;4.60;3.10;;;19.00;99.90;;;;;;5076830;28;20512;-79
2022/06/16 00:22:34;;;;;;;4.97;3.10;;;18.90;99.90;;;;;;5076223;28;20548;-80
2022/06/16 00:25:01;;;;;;;4.53;3.50;;;18.90;99.90;;;;;;5075883;28;20540;-79
2022/06/16 00:27:30;;;;;;;4.30;3.00;;;18.80;99.90;;;;;;5075695;28;20493;-80
2022/06/16 00:29:57;;;;;;;5.50;3.03;;;18.80;99.90;;;;;;5076225;28;20457;-79
2022/06/16 00:32:24;;;;;;;5.20;2.90;;;18.80;99.90;;;;;;5076443;28;20450;-79
2022/06/16 00:34:51;;;;;;;4.80;3.07;;;18.70;99.90;;;;;;5075979;28;20450;-79
2022/06/16 00:37:17;;;;;;;7.50;3.00;;;18.70;99.90;;;;;;5074902;28;20538;-80
2022/06/16 00:39:45;;;;;;;6.63;3.20;;;18.70;99.90;;;;;;5074527;28;20460;-80
2022/06/16 00:42:18;;;;;;;7.60;3.57;;;18.60;99.90;;;;;;5074809;28;20544;-81
2022/06/16 00:44:50;;;;;;;4.30;2.90;;;18.60;99.90;;;;;;5078630;28;20800;-80
2022/06/16 00:47:19;;;;;;;7.20;3.13;;;18.50;99.90;;;;;;5078426;28;20579;-79
2022/06/16 00:49:47;;;;;;;6.63;3.50;;;18.50;99.90;;;;;;5079399;28;21028;-79
2022/06/16 00:52:17;;;;;;;7.00;3.67;;;18.50;99.90;;;;;;5079063;28;20444;-81
2022/06/16 00:54:51;;;;;;;4.50;2.80;;;18.50;99.90;;;;;;5080390;28;20876;-81
2022/06/16 00:57:22;;;;;;;6.33;3.00;;;18.40;99.90;;;;;;5078968;28;20475;-81
2022/06/16 00:59:51;;;;;;;4.40;3.00;;;18.40;99.90;;;;;;5079150;28;20458;-80
2022/06/16 01:02:19;;;;;;;5.03;2.80;;;18.40;99.90;;;;;;5078161;28;20933;-80
2022/06/16 01:04:54;;;;;;;7.73;2.90;;;18.30;99.90;;;;;;5078309;28;20519;-79
2022/06/16 01:07:25;;;;;;;4.70;2.80;;;18.30;99.90;;;;;;5078339;28;20485;-81
2022/06/16 01:09:54;;;;;;;7.90;3.10;;;18.30;99.90;;;;;;5078561;28;20922;-81
2022/06/16 01:15:47;;;;;;;4.83;2.40;;;18.20;99.90;;;;;;5077930;28;20428;-80
2022/06/16 01:18:25;;;;;;;5.63;2.50;;;18.20;99.90;;;;;;5078024;28;20498;-81
2022/06/16 01:20:56;;;;;;;5.57;2.83;;;18.10;99.90;;;;;;5077494;28;20447;-81
2022/06/16 01:24:02;;;;;;;5.67;2.53;;;17.90;99.90;;;;;;5077141;28;20429;-81
2022/06/16 01:27:03;;;;;;;5.40;2.80;;;17.90;99.90;;;;;;5079457;28;20486;-80
2022/06/16 01:29:39;;;;;;;3.90;2.60;;;17.90;99.90;;;;;;5077533;28;20447;-80
2022/06/16 01:32:13;;;;;;;5.70;3.00;;;17.90;99.90;;;;;;5077226;28;20443;-80
2022/06/16 01:34:48;;;;;;;4.60;2.73;;;17.90;99.90;;;;;;5077503;28;20439;-81
2022/06/16 01:37:22;;;;;;;5.93;3.70;;;17.80;99.90;;;;;;5077299;28;20475;-81
2022/06/16 01:39:58;;;;;;;4.40;2.60;;;17.80;99.90;;;;;;5077052;28;20451;-81
2022/06/16 01:42:31;;;;;;;4.87;2.47;;;17.80;99.90;;;;;;5077797;28;20435;-81
2022/06/16 01:45:08;;;;;;;5.90;2.73;;;17.80;99.90;;;;;;5078379;28;20438;-80
2022/06/16 01:47:39;;;;;;;3.93;2.10;;;17.80;99.90;;;;;;5078569;28;21080;-80
2022/06/16 01:50:11;;;;;;;5.73;2.30;;;17.80;99.90;;;;;;5078612;28;20452;-80
2022/06/16 01:52:45;;;;;;;4.27;2.70;;;17.80;99.90;;;;;;5079549;28;20461;-80
2022/06/16 01:55:16;;;;;;;5.27;2.70;;;17.70;99.90;;;;;;5079159;28;20428;-80
2022/06/16 01:57:47;;;;;;;4.47;2.43;;;17.70;99.90;;;;;;5079327;28;20477;-80
2022/06/16 02:00:18;;;;;;;3.63;2.03;;;17.70;99.90;;;;;;5080196;28;20486;-79
2022/06/16 02:02:48;;;;;;;4.03;2.80;;;17.70;99.90;;;;;;5079784;28;20456;-80
2022/06/16 02:05:21;;;;;;;3.50;2.43;;;17.70;99.90;;;;;;5080396;28;20448;-80
2022/06/16 02:07:54;;;;;;;5.77;2.63;;;17.60;99.90;;;;;;5079834;28;20488;-80
2022/06/16 02:10:30;;;;;;;7.27;2.97;;;17.60;99.90;;;;;;5080577;28;20466;-81
2022/06/16 02:12:59;;;;;;;4.83;2.87;;;17.60;99.90;;;;;;5080197;28;20442;-80
2022/06/16 02:15:37;;;;;;;3.80;2.57;;;17.70;99.90;;;;;;5081188;28;20937;-81
2022/06/16 02:18:09;;;;;;;4.30;2.17;;;17.70;99.90;;;;;;5082428;28;20560;-81
2022/06/16 02:20:48;;;;;;;3.30;2.00;;;17.70;99.90;;;;;;5081628;28;20466;-81
2022/06/16 02:23:16;;;;;;;4.13;2.40;;;17.70;99.90;;;;;;5081647;28;20437;-80
2022/06/16 02:25:44;;;;;;;5.80;2.17;;;17.70;99.90;;;;;;5081695;28;20502;-80
2022/06/16 02:28:12;;;;;;;4.10;2.47;;;17.70;99.90;;;;;;5081767;28;20483;-80
2022/06/16 02:30:51;;;;;;;4.93;2.13;;;17.60;99.90;;;;;;5082151;28;20464;-81
2022/06/16 02:33:23;;;;;;;3.73;2.13;;;17.60;99.90;;;;;;5081930;28;20513;-81
2022/06/16 02:35:55;;;;;;;5.10;2.27;;;17.60;99.90;;;;;;5082991;28;20510;-81
2022/06/16 02:38:40;;;;;;;4.00;2.87;;;17.60;99.90;;;;;;5082933;28;20992;-80
2022/06/16 02:41:20;;;;;;;4.60;2.67;;;17.60;99.90;;;;;;5082790;28;20451;-80
2022/06/16 02:43:57;;;;;;;4.10;2.47;;;17.50;99.90;;;;;;5085135;28;20439;-82
2022/06/16 02:46:36;;;;;;;6.00;2.73;;;17.40;99.90;;;;;;5088283;28;20922;-79
2022/06/16 02:49:10;;;;;;;4.77;2.73;;;17.40;99.90;;;;;;5090596;28;20532;-79
2022/06/16 02:51:41;;;;;;;4.40;2.50;;;17.40;99.90;;;;;;5090084;28;20435;-79
2022/06/16 02:54:20;;;;;;;5.03;2.40;;;17.40;99.90;;;;;;5085055;28;20425;-78
2022/06/16 02:56:54;;;;;;;4.07;2.10;;;17.40;99.90;;;;;;5085273;28;20432;-79
2022/06/16 02:59:23;;;;;;;4.47;2.47;;;17.30;99.90;;;;;;5086197;28;20475;-79
2022/06/16 03:01:53;;;;;;;7.07;2.40;;;17.30;99.90;;;;;;5090659;28;20522;-79
2022/06/16 03:04:20;;;;;;;7.70;2.73;;;17.20;99.90;;;;;;5090919;28;20475;-80
2022/06/16 03:06:47;;;;;;;6.07;2.50;;;17.20;99.90;;;;;;5088832;28;20972;-80
2022/06/16 03:09:15;;;;;;;3.90;2.30;;;17.20;99.90;;;;;;5089944;28;20460;-80
2022/06/16 03:11:42;;;;;;;4.50;2.50;;;17.10;99.90;;;;;;5090742;28;20475;-82
2022/06/16 03:14:08;;;;;;;7.17;2.30;;;17.10;99.90;;;;;;5090054;28;20506;-79
2022/06/16 03:16:38;;;;;;;7.73;2.37;;;17.00;99.90;;;;;;5092502;28;20447;-79
2022/06/16 03:19:06;;;;;;;5.03;2.80;;;17.00;99.90;;;;;;5091541;28;20485;-79
2022/06/16 03:21:33;;;;;;;6.07;2.40;;;17.00;99.90;;;;;;5091481;28;20476;-80
2022/06/16 03:24:00;;;;;;;5.50;2.30;;;16.90;99.90;;;;;;5087647;28;20451;-78
2022/06/16 03:26:27;;;;;;;5.50;2.10;;;16.80;99.90;;;;;;5085344;28;20448;-79
2022/06/16 03:28:54;;;;;;;5.17;2.00;;;16.80;99.90;;;;;;5085455;28;20480;-79
2022/06/16 03:31:21;;;;;;;4.57;2.57;;;16.80;99.90;;;;;;5085275;28;20475;-79
2022/06/16 03:33:48;;;;;;;5.60;2.80;;;16.80;99.90;;;;;;5085534;28;20481;-78
2022/06/16 03:36:16;;;;;;;6.47;2.77;;;16.80;99.90;;;;;;5086014;28;20465;-79
2022/06/16 03:38:43;;;;;;;3.97;2.40;;;16.80;99.90;;;;;;5085706;28;20488;-79
2022/06/16 03:41:11;;;;;;;5.10;2.90;;;16.80;1.00;;;;;;5084845;28;20456;-79
2022/06/16 03:43:38;;;;;;;6.30;2.67;;;16.70;1.00;;;;;;5084476;28;20463;-79
2022/06/16 03:46:05;;;;;;;5.53;2.57;;;16.70;1.00;;;;;;5085289;28;20539;-79
2022/06/16 03:48:33;;;;;;;5.30;2.53;;;16.70;1.00;;;;;;5085586;28;20512;-79
2022/06/16 03:51:00;;;;;;;3.53;2.20;;;16.70;99.90;;;;;;5086945;28;20550;-79
2022/06/16 03:53:28;;;;;;;4.40;2.57;;;16.60;99.90;;;;;;5088543;28;20454;-79
2022/06/16 03:55:55;;;;;;;4.43;2.50;;;16.60;99.90;;;;;;5089746;28;20547;-80
2022/06/16 03:58:22;;;;;;;4.07;2.60;;;16.60;99.90;;;;;;5086925;28;20496;-80
2022/06/16 04:00:50;;;;;;;6.03;2.10;;;16.60;99.90;;;;;;5084981;28;20443;-81
2022/06/16 04:06:01;;;;;;;4.17;2.50;;;16.60;1.00;;;;;;5090166;28;20418;-81
2022/06/16 04:08:30;;;;;;;4.70;2.47;;;16.60;1.00;;;;;;5083858;28;20940;-81
2022/06/16 04:10:57;;;;;;;4.40;2.43;;;16.60;1.00;;;;;;5082127;28;20477;-80
2022/06/16 04:13:24;;;;;;;3.70;1.87;;;16.60;1.00;;;;;;5081191;28;20457;-81
2022/06/16 04:15:51;;;;;;;4.77;2.70;;;16.60;1.00;;;;;;5082538;28;20481;-81
2022/06/16 04:18:19;;;;;;;5.23;2.00;;;16.60;1.00;;;;;;5083670;28;20549;-81
2022/06/16 04:20:46;;;;;;;6.30;2.30;;;16.60;1.00;;;;;;5085453;28;20458;-80
2022/06/16 04:23:13;;;;;;;4.97;2.23;;;16.50;99.90;;;;;;5085155;28;20446;-80
2022/06/16 04:25:41;;;;;;;5.23;2.57;;;16.60;99.90;;;;;;5085487;28;20455;-81
2022/06/16 04:28:08;;;;;;;5.23;2.50;;;16.50;1.00;;;;;;5085048;28;20486;-80
2022/06/16 04:30:36;;;;;;;3.77;2.27;;;16.50;99.90;;;;;;5084546;28;20547;-81
2022/06/16 04:33:04;;;;;;;3.57;2.10;;;16.50;99.90;;;;;;5084704;28;20491;-80
2022/06/16 04:35:30;;;;;;;3.27;2.07;;;16.50;99.90;;;;;;5084684;28;20487;-80
2022/06/16 04:37:57;;;;;;;4.90;2.10;;;16.50;99.90;;;;;;5108042;22;20624;-78
2022/06/16 04:40:24;;;;;;;7.50;2.20;;;16.50;99.90;;;;;;5074249;28;20455;-78
2022/06/16 04:42:53;;;;;;;3.70;2.03;;;16.50;99.90;;;;;;5075101;28;20543;-78
2022/06/16 04:45:20;;;;;;;5.00;1.97;;;16.50;1.00;;;;;;5075261;28;20537;-78
2022/06/16 04:47:46;;;;;;;3.47;1.57;;;16.50;1.00;;;;;;5075507;28;20517;-77
2022/06/16 04:50:18;;;;;;;6.77;2.20;;;16.50;1.00;;;;;;5075718;28;20536;-78
2022/06/16 04:52:45;;;;;;;3.60;2.10;;;16.50;1.00;;;;;;5075227;28;20553;-77
2022/06/16 04:55:13;;;;;;;5.53;2.30;;;16.50;1.00;;;;;;5075016;28;20454;-77
2022/06/16 04:57:40;;;;;;;4.27;1.83;;;16.60;1.00;;;;;;5074936;28;20473;-79
2022/06/16 05:00:14;;;;;;;4.50;1.87;;;16.60;1.00;;;;;;5074992;28;20451;-76
2022/06/16 05:02:41;;;;;;;3.60;2.23;;;16.60;1.00;;;;;;5074752;28;20828;-77
2022/06/16 05:05:08;;;;;;;3.43;1.80;;;16.60;1.00;;;;;;5075108;28;20550;-77
2022/06/16 05:07:35;;;;;;;4.00;1.83;;;16.60;1.00;;;;;;5074654;28;20927;-77
2022/06/16 05:10:02;;;;;;;5.47;2.07;;;16.70;99.90;;;;;;5074888;28;20458;-78
2022/06/16 05:12:29;;;;;;;7.90;3.17;;;16.70;99.90;;;;;;5074900;28;20478;-77
2022/06/16 05:14:56;;;;;;;3.50;1.80;;;16.70;99.90;;;;;;5075205;28;20459;-78
2022/06/16 05:17:24;;;;;;;2.70;1.57;;;16.70;1.00;;;;;;5074820;28;20530;-78
2022/06/16 05:19:51;;;;;;;3.53;2.33;;;16.80;1.00;;;;;;5074998;28;20541;-78
2022/06/16 05:22:18;;;;;;;3.47;2.00;;;16.80;99.90;;;;;;5075028;28;20518;-77
2022/06/16 05:24:45;;;;;;;3.97;1.90;;;16.80;99.90;;;;;;5074451;28;20452;-78
2022/06/16 05:27:13;;;;;;;4.00;1.53;;;16.80;99.90;;;;;;5074607;28;20447;-77
2022/06/16 05:29:40;;;;;;;4.87;1.93;;;16.90;99.90;;;;;;5074348;28;20465;-78
2022/06/16 05:32:07;;;;;;;4.60;2.10;;;16.90;99.90;;;;;;5074613;28;20485;-78
2022/06/16 05:34:37;;;;;;;5.83;2.13;;;16.90;99.90;;;;;;5075320;28;20967;-79
2022/06/16 05:37:05;;;;;;;4.80;2.00;;;16.90;99.90;;;;;;5075641;28;20455;-79
2022/06/16 05:39:33;;;;;;;5.53;1.90;;;16.90;99.90;;;;;;5073752;28;20481;-78
2022/06/16 05:42:00;;;;;;;4.37;2.00;;;16.90;99.90;;;;;;5075001;28;20455;-77
2022/06/16 05:44:27;;;;;;;4.13;2.00;;;16.90;99.90;;;;;;5074657;28;20491;-78
2022/06/16 05:46:53;;;;;;;3.87;1.80;;;16.90;99.90;;;;;;5075301;28;20899;-79
2022/06/16 05:49:21;;;;;;;4.33;1.50;;;16.90;99.90;;;;;;5075698;28;20593;-77
2022/06/16 05:51:50;;;;;;;4.13;2.50;;;16.90;99.90;;;;;;5074180;28;20474;-79
2022/06/16 05:54:17;;;;;;;3.40;1.83;;;17.00;99.90;;;;;;5074119;28;20458;-77
2022/06/16 05:56:43;;;;;;;5.73;2.20;;;17.00;99.90;;;;;;5074078;28;20451;-78
2022/06/16 05:59:11;;;;;;;4.90;2.30;;;17.00;99.90;;;;;;5074809;28;20474;-76
2022/06/16 06:01:38;;;;;;;3.40;2.23;;;17.00;99.90;;;;;;5079902;28;20944;-77
2022/06/16 06:04:05;;;;;;;4.03;2.40;;;17.00;99.90;;;;;;5074400;28;20535;-78
2022/06/16 06:06:32;;;;;;;6.07;2.73;;;17.00;99.90;;;;;;5074315;28;20918;-77
2022/06/16 06:17:16;;;;;;;5.03;2.47;;;17.10;99.90;;;;;;5073865;28;20472;-78
2022/06/16 06:19:43;;;;;;;4.37;1.97;;;17.10;99.90;;;;;;5073974;28;20519;-78
2022/06/16 06:22:13;;;;;;;3.80;2.13;;;17.20;99.90;;;;;;5073643;28;20973;-78
2022/06/16 06:24:44;;;;;;;4.63;2.57;;;17.10;99.90;;;;;;5073476;28;20461;-78
2022/06/16 06:27:14;;;;;;;6.23;2.50;;;17.10;1.00;;;;;;5073740;28;20529;-78
2022/06/16 06:29:41;;;;;;;4.47;2.50;;;17.20;1.00;;;;;;5073683;28;20483;-78
2022/06/16 06:32:09;;;;;;;4.87;2.50;;;17.30;99.90;;;;;;5073997;28;20555;-79
2022/06/16 06:34:36;;;;;;;5.43;2.10;;;17.30;99.90;;;;;;5073331;28;20562;-77
2022/06/16 06:37:04;;;;;;;6.07;2.30;;;17.40;1.00;;;;;;5073602;28;20537;-78
2022/06/16 06:39:31;;;;;;;4.63;2.30;;;17.50;1.00;;;;;;5071808;28;20571;-78
2022/06/16 06:42:01;;;;;;;5.67;2.73;;;17.60;1.00;;;;;;5073030;28;20858;-78
2022/06/16 06:44:28;;;;;;;5.40;2.27;;;17.70;1.00;;;;;;5073565;28;20456;-78
2022/06/16 06:46:55;;;;;;;4.10;1.90;;;17.80;1.00;;;;;;5073586;28;20535;-78
2022/06/16 06:49:21;;;;;;;4.70;2.50;;;17.90;1.00;;;;;;5073108;28;20559;-76
2022/06/16 06:51:48;;;;;;;8.23;2.30;;;18.00;1.00;;;;;;5073357;28;20461;-78
2022/06/16 06:54:17;;;;;;;6.00;1.90;;;18.00;99.90;;;;;;5072875;28;20527;-79
2022/06/16 06:56:46;;;;;;;6.47;2.37;;;18.00;99.90;;;;;;5073431;28;20497;-78
2022/06/16 06:59:18;;;;;;;5.50;1.90;;;18.10;99.90;;;;;;5073248;28;20489;-78
2022/06/16 07:01:46;;;;;;;4.00;1.90;;;18.10;99.90;;;;;;5073328;28;20448;-77
2022/06/16 07:04:12;;;;;;;7.27;2.27;;;18.10;99.90;;;;;;5072677;28;20544;-77
2022/06/16 07:06:41;;;;;;;2.87;1.83;;;18.20;99.90;;;;;;5072774;28;21124;-78
2022/06/16 07:09:08;;;;;;;3.63;1.90;;;18.30;99.90;;;;;;5072687;28;20487;-79
2022/06/16 07:11:36;;;;;;;6.60;2.13;;;18.40;99.90;;;;;;5073055;28;20833;-78
2022/06/16 07:14:03;;;;;;;2.97;1.50;;;18.50;99.90;;;;;;5072701;28;20527;-77
2022/06/16 07:16:32;;;;;;;4.97;2.37;;;18.60;99.90;;;;;;5072847;28;20540;-77
2022/06/16 07:18:59;;;;;;;5.50;2.27;;;18.70;99.90;;;;;;5072474;28;20523;-77
2022/06/16 07:21:26;;;;;;;5.20;2.03;;;18.70;99.90;;;;;;5073154;28;20462;-77
2022/06/16 07:23:53;;;;;;;4.60;2.20;;;18.80;99.90;;;;;;5073013;28;20619;-80
2022/06/16 07:26:20;;;;;;;4.07;2.07;;;18.90;99.90;;;;;;5072932;28;20558;-76
2022/06/16 07:28:47;;;;;;;7.33;2.27;;;19.00;99.90;;;;;;5072958;28;20486;-77
2022/06/16 07:31:15;;;;;;;3.97;2.10;;;19.10;99.90;;;;;;5072823;28;20947;-77
2022/06/16 07:33:43;;;;;;;4.13;1.80;;;19.20;99.90;;;;;;5072730;28;20447;-79
2022/06/16 07:36:10;;;;;;;4.33;1.47;;;19.30;99.90;;;;;;5072545;28;20511;-79
2022/06/16 07:38:37;;;;;;;4.10;1.30;;;19.30;99.90;;;;;;5073284;28;20507;-79
2022/06/16 07:43:48;;;;;;;4.10;1.87;;;19.40;99.90;;;;;;5072982;28;20424;-78
2022/06/16 07:46:15;;;;;;;4.00;1.73;;;19.50;99.90;;;;;;5074806;28;20458;-80
2022/06/16 07:48:43;;;;;;;4.57;1.60;;;19.70;99.90;;;;;;5074480;28;20577;-78
2022/06/16 07:51:10;;;;;;;5.10;1.70;;;19.80;99.90;;;;;;5073992;28;20995;-78
2022/06/16 07:53:37;;;;;;;3.97;1.60;;;19.90;99.90;;;;;;5076442;28;20442;-76
2022/06/16 07:56:05;;;;;;;2.43;1.23;;;20.00;99.90;;;;;;5073438;28;20464;-77
2022/06/16 07:58:32;;;;;;;4.90;1.63;;;20.10;99.90;;;;;;5073536;28;20506;-77
2022/06/16 08:01:00;;;;;;;3.87;1.20;;;20.20;99.90;;;;;;5073139;28;20457;-76
2022/06/16 08:03:28;;;;;;;2.50;1.20;;;20.40;99.90;;;;;;5073066;28;20504;-77
2022/06/16 08:05:58;;;;;;;6.53;1.70;;;20.50;99.90;;;;;;5073057;28;20462;-76
2022/06/16 08:08:26;;;;;;;2.53;1.40;;;20.70;99.90;;;;;;5072675;28;20518;-77
2022/06/16 08:10:54;;;;;;;6.20;1.40;;;20.90;99.90;;;;;;5073297;28;20447;-76
2022/06/16 08:13:22;;;;;;;3.43;1.30;;;20.90;99.90;;;;;;5072975;28;20451;-76
2022/06/16 08:15:50;;;;;;;3.50;1.30;;;21.10;99.90;;;;;;5073402;28;20466;-76
2022/06/16 08:18:20;;;;;;;7.00;1.90;;;21.10;99.90;;;;;;5073906;28;20474;-79
2022/06/16 08:20:47;;;;;;;5.33;1.50;;;21.10;99.90;;;;;;5074319;28;20451;-80
2022/06/16 08:23:16;;;;;;;3.27;1.13;;;21.30;99.90;;;;;;5074612;28;20475;-77
2022/06/16 08:25:44;;;;;;;4.27;1.20;;;21.50;99.90;;;;;;5074418;28;20479;-77
2022/06/16 08:28:13;;;;;;;3.77;1.07;;;21.60;99.90;;;;;;5073763;28;20499;-77
2022/06/16 08:30:44;;;;;;;3.40;1.20;;;21.70;99.90;;;;;;5073128;28;20455;-78
2022/06/16 08:33:13;;;;;;;3.87;1.10;;;21.70;99.90;;;;;;5072669;28;20451;-77
2022/06/16 08:35:41;;;;;;;3.50;1.40;;;21.90;99.90;;;;;;5072467;28;20466;-77
2022/06/16 08:38:08;;;;;;;2.47;1.20;;;21.90;99.90;;;;;;5072068;28;20570;-77
2022/06/16 08:40:40;;;;;;;2.40;1.17;;;21.90;99.90;;;;;;5071389;28;20474;-77
2022/06/16 08:43:13;;;;;;;2.67;1.20;;;22.10;99.90;;;;;;5071776;28;20571;-77
2022/06/16 08:45:45;;;;;;;3.63;1.10;;;22.30;99.90;;;;;;5072541;28;20534;-78
2022/06/16 08:48:24;;;;;;;2.50;1.07;;;22.30;99.90;;;;;;5072464;28;20481;-78
2022/06/16 08:50:56;;;;;;;4.50;1.40;;;22.40;99.90;;;;;;5076075;28;20504;-78
2022/06/16 08:53:49;;;;;;;3.00;1.33;;;22.60;99.90;;;;;;5072055;28;20529;-78
2022/06/16 08:56:21;;;;;;;3.53;1.00;;;22.80;99.90;;;;;;5063647;28;20451;-77
2022/06/16 08:58:55;;;;;;;3.73;1.10;;;23.00;99.90;;;;;;5071677;28;20999;-80
2022/06/16 09:01:26;;;;;;;2.20;0.90;;;23.00;99.90;;;;;;5072026;28;20906;-78
2022/06/16 09:04:00;;;;;;;3.00;1.20;;;23.20;99.90;;;;;;5072803;28;20970;-80
2022/06/16 09:06:35;;;;;;;2.33;1.07;;;23.50;99.90;;;;;;5075589;28;20558;-80
2022/06/16 09:09:14;;;;;;;2.27;0.90;;;23.70;99.90;;;;;;5075252;28;20573;-77
2022/06/16 09:11:54;;;;;;;3.43;1.10;;;23.90;99.90;;;;;;5075703;28;20486;-78
2022/06/16 09:17:31;;;;;;;3.47;1.10;;;23.90;99.90;;;;;;5075346;28;20452;-79
2022/06/16 09:20:08;;;;;;;2.60;1.10;;;24.00;99.90;;;;;;5075555;28;20498;-77
2022/06/16 09:22:50;;;;;;;2.30;0.87;;;24.20;99.90;;;;;;5075450;28;20827;-76
2022/06/16 09:25:30;;;;;;;3.20;0.93;;;24.20;99.90;;;;;;5075353;28;20540;-76
2022/06/16 09:28:05;;;;;;;3.30;1.23;;;24.30;99.90;;;;;;5075687;28;20557;-75
2022/06/16 09:30:37;;;;;;;1.97;0.93;;;24.50;99.90;;;;;;5076200;28;20576;-76
2022/06/16 09:33:08;;;;;;;2.30;0.97;;;24.90;99.90;;;;;;5082015;28;20511;-79
2022/06/16 09:35:41;;;;;;;3.03;0.90;;;25.00;99.90;;;;;;5078132;28;20451;-78
2022/06/16 09:38:13;;;;;;;2.77;0.97;;;25.20;99.90;;;;;;5076265;28;20558;-78
2022/06/16 09:40:44;;;;;;;2.00;0.80;;;25.40;99.90;;;;;;5075965;28;20466;-77
2022/06/16 09:43:17;;;;;;;2.80;1.00;;;25.60;99.90;;;;;;5076022;28;20454;-79
2022/06/16 09:45:49;;;;;;;1.70;0.70;;;25.80;99.90;;;;;;5078061;28;20446;-78
2022/06/16 09:48:21;;;;;;;2.63;0.90;;;26.10;99.90;;;;;;5075560;28;20884;-78
2022/06/16 09:50:52;;;;;;;3.07;1.00;;;26.40;99.90;;;;;;5074961;28;20789;-78
2022/06/16 09:53:28;;;;;;;1.97;0.90;;;26.70;99.90;;;;;;5074465;28;20447;-77
2022/06/16 09:56:02;;;;;;;2.53;0.90;;;26.70;99.90;;;;;;5075010;28;20616;-77
2022/06/16 09:58:35;;;;;;;3.93;1.57;;;27.00;99.90;;;;;;5074219;28;20500;-80
2022/06/16 10:01:08;;;;;;;2.00;0.90;;;26.80;99.90;;;;;;5074722;28;20542;-79
2022/06/16 10:03:40;;;;;;;4.20;1.30;;;26.70;99.90;;;;;;5074056;28;20451;-77
2022/06/16 10:06:19;;;;;;;2.10;1.00;;;26.70;99.90;;;;;;5074113;28;20493;-78
2022/06/16 10:08:53;;;;;;;2.83;1.03;;;26.60;99.90;;;;;;5074563;28;20508;-78
2022/06/16 10:11:30;;;;;;;2.17;0.93;;;26.70;99.90;;;;;;5074444;28;20486;-80
2022/06/16 10:14:06;;;;;;;5.50;1.00;;;26.70;99.90;;;;;;5074449;28;20447;-78
2022/06/16 10:16:42;;;;;;;2.67;1.00;;;26.70;99.90;;;;;;5073039;28;20538;-77
2022/06/16 10:19:10;;;;;;;2.10;0.80;;;26.80;99.90;;;;;;5073984;28;20466;-81
2022/06/16 10:21:37;;;;;;;3.07;1.10;;;26.60;99.90;;;;;;5074202;28;20481;-78
2022/06/16 10:24:06;;;;;;;3.13;1.00;;;26.80;99.90;;;;;;5073604;28;20542;-78
2022/06/16 10:26:34;;;;;;;3.67;1.20;;;27.00;99.90;;;;;;5073585;28;20458;-79
2022/06/16 10:29:09;;;;;;;2.30;1.10;;;27.10;99.90;;;;;;5073740;28;20494;-78
2022/06/16 10:31:40;;;;;;;2.27;1.10;;;27.20;99.90;;;;;;5073645;28;20484;-77
2022/06/16 10:34:21;;;;;;;3.80;1.30;;;27.00;99.90;;;;;;5073296;28;20550;-77
2022/06/16 10:36:57;;;;;;;2.37;1.03;;;27.00;99.90;;;;;;5073889;28;20645;-78
2022/06/16 10:39:31;;;;;;;2.77;1.03;;;27.20;99.90;;;;;;5097052;22;20498;-78
2022/06/16 10:42:04;;;;;;;3.70;1.10;;;27.30;99.90;;;;;;5078487;28;20482;-80
2022/06/16 10:44:33;;;;;;;4.03;1.87;;;27.40;99.90;;;;;;5077827;28;20534;-79
2022/06/16 10:47:06;;;;;;;5.00;1.40;;;27.60;99.90;;;;;;5077333;28;20954;-77
2022/06/16 10:49:35;;;;;;;3.50;1.13;;;27.60;99.90;;;;;;5077991;28;20581;-78
2022/06/16 10:52:06;;;;;;;2.00;0.90;;;27.80;99.90;;;;;;5078795;28;20821;-81
2022/06/16 10:54:35;;;;;;;4.07;1.97;;;27.90;99.90;;;;;;5078574;28;20451;-80
2022/06/16 10:57:14;;;;;;;3.27;1.10;;;27.90;99.90;;;;;;5077837;28;20534;-79
2022/06/16 10:59:47;;;;;;;3.00;1.57;;;28.10;99.90;;;;;;5077996;28;20530;-80
2022/06/16 11:02:22;;;;;;;2.20;1.10;;;28.00;99.90;;;;;;5077464;28;20482;-80
2022/06/16 11:04:57;;;;;;;2.70;1.00;;;28.00;99.90;;;;;;5077623;28;20450;-79
2022/06/16 11:07:24;;;;;;;2.57;1.50;;;28.00;99.90;;;;;;5078027;28;20451;-78
2022/06/16 11:09:52;;;;;;;3.30;1.50;;;28.20;99.90;;;;;;5078320;28;20514;-80
2022/06/16 11:12:21;;;;;;;4.17;1.27;;;28.00;99.90;;;;;;5079346;28;21026;-81
2022/06/16 11:14:55;;;;;;;3.20;0.90;;;28.30;99.90;;;;;;5078959;28;20482;-79
2022/06/16 11:17:26;;;;;;;2.50;1.27;;;28.50;99.90;;;;;;5077406;28;20529;-79
2022/06/16 11:20:00;;;;;;;3.90;1.63;;;28.50;99.90;;;;;;5076611;28;21026;-78
2022/06/16 11:22:31;;;;;;;2.10;1.00;;;28.60;99.90;;;;;;5077553;28;20533;-78
2022/06/16 11:25:02;;;;;;;2.93;1.33;;;28.70;99.90;;;;;;5079084;28;20545;-80
2022/06/16 11:27:29;;;;;;;5.37;2.10;;;28.50;99.90;;;;;;5078752;28;20497;-78
2022/06/16 11:29:57;;;;;;;2.97;1.30;;;28.70;99.90;;;;;;5077213;28;20555;-81
2022/06/16 11:32:28;;;;;;;3.13;1.20;;;28.80;99.90;;;;;;5077162;28;20475;-81
2022/06/16 11:34:56;;;;;;;11.60;6.50;;;29.10;99.90;;;;;;5076821;28;20465;-78
2022/06/16 11:37:46;;;;;;;4.33;1.83;;;29.40;99.90;;;;;;5077866;28;20973;-78
2022/06/16 11:40:31;;;;;;;2.60;1.60;;;29.60;99.90;;;;;;5076198;28;20562;-79
2022/06/16 11:43:26;;;;;;;3.70;1.53;;;29.70;99.90;;;;;;5078076;28;21033;-79
2022/06/16 11:46:00;;;;;;;2.90;1.30;;;29.60;99.90;;;;;;5078458;28;20519;-79
2022/06/16 11:48:35;;;;;;;6.23;1.40;;;29.70;99.90;;;;;;5079279;28;20870;-79
2022/06/16 11:51:11;;;;;;;3.47;1.50;;;29.90;99.90;;;;;;5078259;28;20554;-79
2022/06/16 11:53:48;;;;;;;2.37;1.20;;;30.10;99.90;;;;;;5077245;28;20451;-79
2022/06/16 11:56:25;;;;;;;3.70;1.53;;;30.20;99.90;;;;;;5077591;28;20525;-80
2022/06/16 11:59:25;;;;;;;2.60;1.43;;;30.50;99.90;;;;;;5078623;28;20467;-79
2022/06/16 12:01:58;;;;;;;2.07;1.00;;;30.60;99.90;;;;;;5045982;28;20451;-78
2022/06/16 12:04:43;;;;;;;2.50;1.17;;;30.70;99.90;;;;;;5080949;28;20474;-79
2022/06/16 12:07:30;;;;;;;2.70;1.40;;;30.90;99.90;;;;;;5081182;28;20515;-81
2022/06/16 12:10:03;;;;;;;2.90;1.40;;;31.00;99.90;;;;;;5078055;28;20566;-80
2022/06/16 12:12:38;;;;;;;2.53;1.50;;;31.00;99.90;;;;;;5078252;28;20443;-77
2022/06/16 12:15:22;;;;;;;2.93;1.10;;;30.80;99.90;;;;;;5078721;28;20478;-79
2022/06/16 12:18:00;;;;;;;2.53;1.20;;;30.90;99.90;;;;;;5079473;28;20459;-82
2022/06/16 12:20:33;;;;;;;2.60;1.30;;;31.10;99.90;;;;;;5078061;28;20538;-81
2022/06/16 12:23:05;;;;;;;4.77;1.37;;;31.20;99.90;;;;;;5078652;28;20518;-80
2022/06/16 12:25:39;;;;;;;3.37;1.60;;;31.40;99.90;;;;;;5078631;28;20427;-79
2022/06/16 12:28:12;;;;;;;2.93;1.50;;;31.10;99.90;;;;;;5077976;28;20479;-82
2022/06/16 12:30:45;;;;;;;4.00;1.40;;;31.40;99.90;;;;;;5079711;28;20518;-80
2022/06/16 12:33:19;;;;;;;3.43;1.20;;;31.60;99.90;;;;;;5079639;28;20435;-79
2022/06/16 12:35:50;;;;;;;2.40;1.40;;;31.80;99.90;;;;;;5079469;28;20437;-81
2022/06/16 12:38:23;;;;;;;2.67;1.20;;;31.90;99.90;;;;;;5079671;28;20479;-80
2022/06/16 12:40:52;;;;;;;5.10;1.50;;;32.00;99.90;;;;;;5084444;28;20443;-80
2022/06/16 12:43:24;;;;;;;2.17;1.10;;;31.70;99.90;;;;;;5083660;28;20481;-79
2022/06/16 12:45:58;;;;;;;2.40;1.20;;;31.90;99.90;;;;;;5085139;28;20454;-81
2022/06/16 12:48:32;;;;;;;3.20;1.43;;;32.10;99.90;;;;;;5084472;28;20480;-81
2022/06/16 12:51:03;;;;;;;2.30;1.23;;;32.20;99.90;;;;;;5086010;28;20492;-79
2022/06/16 12:53:35;;;;;;;2.77;1.47;;;32.50;99.90;;;;;;5082819;28;20465;-77
2022/06/16 12:56:07;;;;;;;4.10;1.30;;;32.60;99.90;;;;;;5083094;28;20474;-80
2022/06/16 12:58:41;;;;;;;3.33;1.67;;;32.80;99.90;;;;;;5083401;28;20554;-80
2022/06/16 13:01:11;;;;;;;2.73;1.37;;;33.10;99.90;;;;;;5083186;28;20442;-81
2022/06/16 13:03:47;;;;;;;4.93;1.47;;;33.20;99.90;;;;;;5082455;28;20450;-80
2022/06/16 13:06:16;;;;;;;3.03;1.50;;;33.30;99.90;;;;;;5091358;28;20451;-83
2022/06/16 13:08:48;;;;;;;2.87;1.37;;;33.10;99.90;;;;;;5099904;28;20470;-82
2022/06/16 13:11:19;;;;;;;2.83;1.23;;;33.40;99.90;;;;;;5099356;28;20499;-84
2022/06/16 13:13:57;;;;;;;2.77;1.40;;;33.40;99.90;;;;;;5081107;28;20447;-78
2022/06/16 13:16:29;;;;;;;2.97;1.03;;;33.40;99.90;;;;;;5079885;28;20466;-81
2022/06/16 13:19:00;;;;;;;2.87;1.13;;;33.60;99.90;;;;;;5078602;28;20881;-78
2022/06/16 13:21:31;;;;;;;2.33;1.50;;;33.50;99.90;;;;;;5079886;28;20562;-79
2022/06/16 13:24:11;;;;;;;2.40;1.27;;;33.50;99.90;;;;;;5079880;28;20479;-80
2022/06/16 13:26:42;;;;;;;3.80;1.40;;;33.80;99.90;;;;;;5079815;28;20955;-78